VLG203 EDJA-EDLW
Flight info
| Callsign | VLG203 |
|---|---|
| Flight time | 0h 42m |
| Altitude | 32000 |
| Route | LUPOL5B LUPOL Z714 PELOG DCT ADEMI ADEMI2A |
| Aircraft | A320/M-SDE3FGHIRWY/LB1 |
Departure
| Time | 2026-04-24 19:47 |
|---|---|
| Airport | Memmingen Allgau Airport (EDJA) |
Arrival
| Time | 2026-04-24 20:29 |
|---|---|
| Airport | Dortmund Airport (EDLW) |
| Time | Latitude | Longitude | Altitude | Speed | Heading |
|---|---|---|---|---|---|
| 2026-04-24 19:31 | 47.98868 | 10.23239 | 2080 ft | 0 kts | 49° |
| 2026-04-24 19:38 | 47.98868 | 10.23238 | 2080 ft | 2 kts | 45° |
| 2026-04-24 19:38 | 47.98853 | 10.23227 | 2078 ft | 2 kts | 335° |
| 2026-04-24 19:38 | 47.98841 | 10.23235 | 2080 ft | 2 kts | 339° |
| 2026-04-24 19:38 | 47.98829 | 10.23250 | 2080 ft | 2 kts | 269° |
| 2026-04-24 19:39 | 47.98829 | 10.23251 | 2080 ft | 0 kts | 266° |
| 2026-04-24 19:41 | 47.98820 | 10.23212 | 2080 ft | 5 kts | 242° |
| 2026-04-24 19:41 | 47.98804 | 10.23173 | 2080 ft | 4 kts | 242° |
| 2026-04-24 19:41 | 47.98793 | 10.23134 | 2080 ft | 5 kts | 249° |
| 2026-04-24 19:41 | 47.98773 | 10.23051 | 2076 ft | 10 kts | 251° |
| 2026-04-24 19:42 | 47.98743 | 10.22951 | 2078 ft | 11 kts | 233° |
| 2026-04-24 19:42 | 47.98708 | 10.22850 | 2077 ft | 11 kts | 261° |
| 2026-04-24 19:42 | 47.98691 | 10.22737 | 2077 ft | 10 kts | 240° |
| 2026-04-24 19:42 | 47.98638 | 10.22709 | 2080 ft | 7 kts | 184° |
| 2026-04-24 19:43 | 47.98601 | 10.22710 | 2081 ft | 4 kts | 177° |
| 2026-04-24 19:43 | 47.98527 | 10.22706 | 2083 ft | 15 kts | 198° |
| 2026-04-24 19:43 | 47.98470 | 10.22629 | 2085 ft | 0 kts | 239° |
| 2026-04-24 19:45 | 47.98461 | 10.22606 | 2085 ft | 14 kts | 240° |
| 2026-04-24 19:45 | 47.98414 | 10.22537 | 2087 ft | 5 kts | 192° |
| 2026-04-24 19:46 | 47.98368 | 10.22568 | 2088 ft | 16 kts | 138° |
| 2026-04-24 19:46 | 47.98351 | 10.22616 | 2088 ft | 4 kts | 103° |
| 2026-04-24 19:46 | 47.98362 | 10.22675 | 2087 ft | 9 kts | 52° |
| 2026-04-24 19:46 | 47.98456 | 10.22880 | 2084 ft | 47 kts | 59° |
| 2026-04-24 19:47 | 47.98802 | 10.23756 | 2077 ft | 143 kts | 58° |
| 2026-04-24 19:47 | 47.99402 | 10.25290 | 2470 ft | 186 kts | 60° |
| 2026-04-24 19:47 | 48.00106 | 10.27115 | 3031 ft | 218 kts | 61° |
| 2026-04-24 19:47 | 48.00861 | 10.29202 | 3556 ft | 239 kts | 62° |
| 2026-04-24 19:48 | 48.01685 | 10.31474 | 4325 ft | 257 kts | 61° |
| 2026-04-24 19:48 | 48.02576 | 10.33817 | 5365 ft | 261 kts | 58° |
| 2026-04-24 19:48 | 48.05172 | 10.37058 | 7583 ft | 243 kts | 6° |
| 2026-04-24 19:49 | 48.08205 | 10.35334 | 9766 ft | 235 kts | 325° |
| 2026-04-24 19:49 | 48.10389 | 10.32106 | 11570 ft | 237 kts | 301° |
| 2026-04-24 19:50 | 48.12558 | 10.24525 | 13258 ft | 292 kts | 292° |
| 2026-04-24 19:50 | 48.13366 | 10.21642 | 13808 ft | 309 kts | 292° |
| 2026-04-24 19:51 | 48.15103 | 10.15415 | 14931 ft | 339 kts | 292° |
| 2026-04-24 19:51 | 48.16025 | 10.12097 | 15487 ft | 351 kts | 292° |
| 2026-04-24 19:52 | 48.17956 | 10.05108 | 16589 ft | 374 kts | 292° |
| 2026-04-24 19:52 | 48.18958 | 10.01459 | 17157 ft | 383 kts | 292° |
| 2026-04-24 19:52 | 48.19981 | 9.97726 | 17710 ft | 391 kts | 292° |
| 2026-04-24 19:52 | 48.21009 | 9.93964 | 18253 ft | 397 kts | 291° |
| 2026-04-24 19:53 | 48.21765 | 9.89967 | 18809 ft | 402 kts | 280° |
| 2026-04-24 19:53 | 48.22042 | 9.85781 | 19363 ft | 405 kts | 273° |
| 2026-04-24 19:53 | 48.22546 | 9.77310 | 20465 ft | 412 kts | 282° |
| 2026-04-24 19:54 | 48.23474 | 9.73241 | 21021 ft | 415 kts | 295° |
| 2026-04-24 19:54 | 48.25011 | 9.69558 | 21595 ft | 419 kts | 309° |
| 2026-04-24 19:54 | 48.27076 | 9.66478 | 22171 ft | 421 kts | 322° |
| 2026-04-24 19:54 | 48.29575 | 9.64161 | 22746 ft | 424 kts | 335° |
| 2026-04-24 19:55 | 48.31399 | 9.63094 | 23134 ft | 425 kts | 341° |
| 2026-04-24 19:55 | 48.35153 | 9.61163 | 23905 ft | 428 kts | 341° |
| 2026-04-24 19:55 | 48.37974 | 9.59715 | 24477 ft | 429 kts | 341° |
| 2026-04-24 19:55 | 48.40804 | 9.58264 | 25056 ft | 430 kts | 341° |
| 2026-04-24 19:56 | 48.43634 | 9.56808 | 25628 ft | 430 kts | 341° |
| 2026-04-24 19:56 | 48.46470 | 9.55350 | 26208 ft | 431 kts | 341° |
| 2026-04-24 19:56 | 48.49310 | 9.53890 | 26784 ft | 431 kts | 341° |
| 2026-04-24 19:56 | 48.52143 | 9.52427 | 27356 ft | 431 kts | 341° |
| 2026-04-24 19:57 | 48.54977 | 9.50958 | 27937 ft | 430 kts | 341° |
| 2026-04-24 19:57 | 48.57806 | 9.49489 | 28511 ft | 430 kts | 341° |
| 2026-04-24 19:57 | 48.60634 | 9.48020 | 29087 ft | 429 kts | 341° |
| 2026-04-24 19:57 | 48.63417 | 9.46572 | 29646 ft | 428 kts | 341° |
| 2026-04-24 19:58 | 48.66228 | 9.45111 | 30195 ft | 427 kts | 341° |
| 2026-04-24 19:58 | 48.69038 | 9.43641 | 30745 ft | 426 kts | 340° |
| 2026-04-24 19:58 | 48.71816 | 9.42079 | 31290 ft | 425 kts | 339° |
| 2026-04-24 19:58 | 48.74562 | 9.40421 | 31807 ft | 425 kts | 333° |
| 2026-04-24 19:59 | 48.77043 | 9.37927 | 31974 ft | 433 kts | 319° |
| 2026-04-24 19:59 | 48.79406 | 9.35010 | 32011 ft | 444 kts | 327° |
| 2026-04-24 19:59 | 48.82159 | 9.32770 | 32012 ft | 454 kts | 333° |
| 2026-04-24 20:00 | 48.87947 | 9.28674 | 32009 ft | 462 kts | 336° |
| 2026-04-24 20:00 | 48.93843 | 9.24757 | 32009 ft | 462 kts | 336° |
| 2026-04-24 20:01 | 48.99732 | 9.20823 | 32009 ft | 462 kts | 336° |
| 2026-04-24 20:01 | 49.05601 | 9.16813 | 32009 ft | 462 kts | 335° |
| 2026-04-24 20:02 | 49.10466 | 9.13443 | 32009 ft | 462 kts | 335° |
| 2026-04-24 20:02 | 49.17310 | 9.08706 | 32008 ft | 462 kts | 335° |
| 2026-04-24 20:03 | 49.23130 | 9.04690 | 32007 ft | 462 kts | 335° |
| 2026-04-24 20:03 | 49.28985 | 9.00632 | 32003 ft | 462 kts | 335° |
| 2026-04-24 20:04 | 49.34998 | 8.97198 | 32001 ft | 461 kts | 342° |
| 2026-04-24 20:04 | 49.41121 | 8.94236 | 31997 ft | 462 kts | 342° |
| 2026-04-24 20:05 | 49.47248 | 8.91295 | 31998 ft | 462 kts | 342° |
| 2026-04-24 20:05 | 49.53377 | 8.88319 | 31999 ft | 459 kts | 342° |
| 2026-04-24 20:06 | 49.59492 | 8.85315 | 32001 ft | 468 kts | 342° |
| 2026-04-24 20:06 | 49.65819 | 8.82211 | 32010 ft | 486 kts | 342° |
| 2026-04-24 20:06 | 49.69056 | 8.80614 | 32122 ft | 484 kts | 342° |
| 2026-04-24 20:07 | 49.71147 | 8.79600 | 32331 ft | 466 kts | 342° |
| 2026-04-24 20:07 | 49.78477 | 8.76018 | 32013 ft | 488 kts | 342° |
| 2026-04-24 20:07 | 49.81674 | 8.74425 | 31987 ft | 470 kts | 342° |
| 2026-04-24 20:08 | 49.84760 | 8.72887 | 32011 ft | 462 kts | 342° |
| 2026-04-24 20:08 | 49.87817 | 8.71365 | 31807 ft | 462 kts | 342° |
| 2026-04-24 20:08 | 49.90877 | 8.69844 | 31555 ft | 462 kts | 342° |
| 2026-04-24 20:08 | 49.93947 | 8.68319 | 31304 ft | 463 kts | 342° |
| 2026-04-24 20:09 | 49.97015 | 8.66793 | 31062 ft | 465 kts | 342° |
| 2026-04-24 20:09 | 50.00090 | 8.65262 | 30817 ft | 464 kts | 342° |
| 2026-04-24 20:09 | 50.03168 | 8.63727 | 30563 ft | 464 kts | 342° |
| 2026-04-24 20:09 | 50.06245 | 8.62192 | 30314 ft | 464 kts | 342° |
| 2026-04-24 20:10 | 50.09315 | 8.60658 | 30066 ft | 465 kts | 342° |
| 2026-04-24 20:10 | 50.12396 | 8.59111 | 29811 ft | 465 kts | 342° |
| 2026-04-24 20:10 | 50.15439 | 8.57581 | 29563 ft | 466 kts | 342° |
| 2026-04-24 20:10 | 50.18525 | 8.56028 | 29088 ft | 465 kts | 342° |
| 2026-04-24 20:11 | 50.21611 | 8.54475 | 28436 ft | 467 kts | 342° |
| 2026-04-24 20:11 | 50.24710 | 8.52914 | 27777 ft | 469 kts | 342° |
| 2026-04-24 20:11 | 50.27824 | 8.51346 | 27131 ft | 471 kts | 342° |
| 2026-04-24 20:11 | 50.30945 | 8.49774 | 26483 ft | 472 kts | 342° |
| 2026-04-24 20:12 | 50.34075 | 8.48194 | 25837 ft | 473 kts | 342° |
| 2026-04-24 20:12 | 50.37224 | 8.46598 | 25167 ft | 475 kts | 342° |
| 2026-04-24 20:12 | 50.39305 | 8.45542 | 24669 ft | 475 kts | 342° |
| 2026-04-24 20:12 | 50.43506 | 8.43409 | 23661 ft | 472 kts | 342° |
| 2026-04-24 20:13 | 50.46619 | 8.41832 | 22903 ft | 467 kts | 342° |
| 2026-04-24 20:13 | 50.49702 | 8.40269 | 22160 ft | 464 kts | 342° |
| 2026-04-24 20:13 | 50.51722 | 8.39239 | 21663 ft | 459 kts | 342° |
| 2026-04-24 20:13 | 50.55757 | 8.37174 | 20663 ft | 451 kts | 341° |
| 2026-04-24 20:14 | 50.57725 | 8.36162 | 20161 ft | 448 kts | 341° |
| 2026-04-24 20:14 | 50.60671 | 8.34650 | 19410 ft | 443 kts | 341° |
| 2026-04-24 20:14 | 50.63588 | 8.33156 | 18661 ft | 438 kts | 342° |
| 2026-04-24 20:14 | 50.66467 | 8.31682 | 17910 ft | 434 kts | 342° |
| 2026-04-24 20:15 | 50.69330 | 8.30213 | 17164 ft | 429 kts | 341° |
| 2026-04-24 20:15 | 50.72150 | 8.28761 | 16406 ft | 425 kts | 341° |
| 2026-04-24 20:15 | 50.74944 | 8.27318 | 15652 ft | 420 kts | 341° |
| 2026-04-24 20:15 | 50.77706 | 8.25888 | 14904 ft | 416 kts | 341° |
| 2026-04-24 20:16 | 50.80448 | 8.24467 | 14151 ft | 412 kts | 341° |
| 2026-04-24 20:16 | 50.83156 | 8.23065 | 13400 ft | 408 kts | 341° |
| 2026-04-24 20:16 | 50.85837 | 8.21677 | 12648 ft | 403 kts | 341° |
| 2026-04-24 20:16 | 50.88494 | 8.20300 | 11899 ft | 399 kts | 341° |
| 2026-04-24 20:17 | 50.91116 | 8.18936 | 11254 ft | 394 kts | 341° |
| 2026-04-24 20:17 | 50.96319 | 8.16232 | 11000 ft | 393 kts | 341° |
| 2026-04-24 20:17 | 50.98923 | 8.14877 | 10998 ft | 394 kts | 341° |
| 2026-04-24 20:18 | 51.00647 | 8.13978 | 10836 ft | 393 kts | 341° |
| 2026-04-24 20:18 | 51.04118 | 8.12171 | 10504 ft | 391 kts | 341° |
| 2026-04-24 20:18 | 51.06661 | 8.10841 | 10255 ft | 388 kts | 341° |
| 2026-04-24 20:18 | 51.09166 | 8.09531 | 10008 ft | 370 kts | 341° |
| 2026-04-24 20:19 | 51.11524 | 8.08299 | 9753 ft | 340 kts | 341° |
| 2026-04-24 20:19 | 51.13675 | 8.07173 | 9500 ft | 312 kts | 341° |
| 2026-04-24 20:19 | 51.15662 | 8.06130 | 9251 ft | 292 kts | 341° |
| 2026-04-24 20:19 | 51.17570 | 8.05127 | 9007 ft | 287 kts | 341° |
| 2026-04-24 20:20 | 51.19457 | 8.04133 | 8759 ft | 285 kts | 341° |
| 2026-04-24 20:20 | 51.21335 | 8.03143 | 8507 ft | 285 kts | 341° |
| 2026-04-24 20:20 | 51.23212 | 8.02153 | 8259 ft | 283 kts | 341° |
| 2026-04-24 20:20 | 51.25077 | 8.01169 | 8007 ft | 282 kts | 341° |
| 2026-04-24 20:21 | 51.26936 | 8.00188 | 7751 ft | 281 kts | 341° |
| 2026-04-24 20:21 | 51.28788 | 7.99208 | 7495 ft | 279 kts | 341° |
| 2026-04-24 20:21 | 51.30629 | 7.98233 | 7252 ft | 278 kts | 341° |
| 2026-04-24 20:21 | 51.32463 | 7.97264 | 6997 ft | 277 kts | 341° |
| 2026-04-24 20:22 | 51.34291 | 7.96301 | 6752 ft | 276 kts | 341° |
| 2026-04-24 20:22 | 51.36077 | 7.95358 | 6499 ft | 264 kts | 341° |
| 2026-04-24 20:22 | 51.37790 | 7.94447 | 6251 ft | 255 kts | 341° |
| 2026-04-24 20:22 | 51.39452 | 7.93562 | 6000 ft | 248 kts | 341° |
| 2026-04-24 20:23 | 51.41071 | 7.92700 | 5750 ft | 242 kts | 341° |
| 2026-04-24 20:23 | 51.42646 | 7.91858 | 5500 ft | 236 kts | 341° |
| 2026-04-24 20:23 | 51.44195 | 7.91030 | 5249 ft | 231 kts | 341° |
| 2026-04-24 20:23 | 51.45707 | 7.90225 | 4998 ft | 227 kts | 341° |
| 2026-04-24 20:24 | 51.47171 | 7.89443 | 4757 ft | 223 kts | 341° |
| 2026-04-24 20:24 | 51.48651 | 7.88658 | 4499 ft | 219 kts | 341° |
| 2026-04-24 20:24 | 51.50079 | 7.87942 | 4246 ft | 216 kts | 342° |
| 2026-04-24 20:24 | 51.51510 | 7.87249 | 3990 ft | 213 kts | 342° |
| 2026-04-24 20:25 | 51.52926 | 7.86566 | 3729 ft | 211 kts | 343° |
| 2026-04-24 20:25 | 51.54320 | 7.85890 | 3454 ft | 208 kts | 342° |
| 2026-04-24 20:25 | 51.55649 | 7.84994 | 3063 ft | 208 kts | 326° |
| 2026-04-24 20:25 | 51.56686 | 7.83466 | 2924 ft | 197 kts | 306° |
| 2026-04-24 20:26 | 51.57328 | 7.81578 | 2821 ft | 190 kts | 288° |
| 2026-04-24 20:26 | 51.57568 | 7.79516 | 2680 ft | 187 kts | 271° |
| 2026-04-24 20:26 | 51.57404 | 7.77465 | 2495 ft | 184 kts | 253° |
| 2026-04-24 20:26 | 51.56896 | 7.75674 | 2299 ft | 170 kts | 240° |
| 2026-04-24 20:27 | 51.56335 | 7.74071 | 2064 ft | 160 kts | 241° |
| 2026-04-24 20:27 | 51.55812 | 7.72572 | 1863 ft | 149 kts | 241° |
| 2026-04-24 20:27 | 51.55324 | 7.71179 | 1691 ft | 137 kts | 241° |
| 2026-04-24 20:27 | 51.54868 | 7.69876 | 1499 ft | 131 kts | 241° |
| 2026-04-24 20:28 | 51.54424 | 7.68609 | 1326 ft | 129 kts | 241° |
| 2026-04-24 20:28 | 51.53985 | 7.67356 | 1153 ft | 128 kts | 241° |
| 2026-04-24 20:28 | 51.53567 | 7.66095 | 999 ft | 128 kts | 243° |
| 2026-04-24 20:28 | 51.53138 | 7.64843 | 812 ft | 128 kts | 240° |
| 2026-04-24 20:29 | 51.52846 | 7.64025 | 677 ft | 128 kts | 241° |
| 2026-04-24 20:29 | 51.52251 | 7.62382 | 455 ft | 127 kts | 239° |
| 2026-04-24 20:29 | 51.51851 | 7.61272 | 412 ft | 95 kts | 241° |
| 2026-04-24 20:29 | 51.51696 | 7.60836 | 413 ft | 18 kts | 241° |
| 2026-04-24 20:30 | 51.51634 | 7.60663 | 414 ft | 15 kts | 238° |
| 2026-04-24 20:30 | 51.51586 | 7.60605 | 419 ft | 1 kts | 182° |
| 2026-04-24 20:30 | 51.51531 | 7.60657 | 415 ft | 15 kts | 123° |
| 2026-04-24 20:30 | 51.51538 | 7.60782 | 419 ft | 0 kts | 74° |
| 2026-04-24 20:31 | 51.51541 | 7.60803 | 414 ft | 5 kts | 78° |
| 2026-04-24 20:31 | 51.51554 | 7.60882 | 425 ft | 10 kts | 72° |
| 2026-04-24 20:32 | 51.51579 | 7.61009 | 425 ft | 12 kts | 73° |
| 2026-04-24 20:32 | 51.51590 | 7.61113 | 429 ft | 4 kts | 108° |
| 2026-04-24 20:32 | 51.51572 | 7.61142 | 422 ft | 9 kts | 135° |
| 2026-04-24 20:32 | 51.51544 | 7.61175 | 427 ft | 0 kts | 151° |
| 2026-04-24 20:33 | 51.51537 | 7.61182 | 431 ft | 0 kts | 151° |